sensor_id;sensor_type;location;lat;lon;timestamp;temperature;humidity
78541;SHT31;67835;51.968;5.646;2024-03-07T00:00:16;8.1;67.3
78541;SHT31;67835;51.968;5.646;2024-03-07T00:02:47;8.1;67.2
78541;SHT31;67835;51.968;5.646;2024-03-07T00:05:16;8.1;67.5
78541;SHT31;67835;51.968;5.646;2024-03-07T00:07:45;8.0;67.7
78541;SHT31;67835;51.968;5.646;2024-03-07T00:10:15;8.0;67.6
78541;SHT31;67835;51.968;5.646;2024-03-07T00:12:46;8.0;68.1
78541;SHT31;67835;51.968;5.646;2024-03-07T00:15:15;8.0;68.3
78541;SHT31;67835;51.968;5.646;2024-03-07T00:17:44;8.0;68.1
78541;SHT31;67835;51.968;5.646;2024-03-07T00:20:15;7.9;67.9
78541;SHT31;67835;51.968;5.646;2024-03-07T00:22:45;7.9;67.8
78541;SHT31;67835;51.968;5.646;2024-03-07T00:25:14;7.9;67.7
78541;SHT31;67835;51.968;5.646;2024-03-07T00:27:46;7.9;68.0
78541;SHT31;67835;51.968;5.646;2024-03-07T00:30:14;7.9;68.4
78541;SHT31;67835;51.968;5.646;2024-03-07T00:32:44;7.9;68.2
78541;SHT31;67835;51.968;5.646;2024-03-07T00:35:13;7.8;68.2
78541;SHT31;67835;51.968;5.646;2024-03-07T00:37:42;7.8;68.2
78541;SHT31;67835;51.968;5.646;2024-03-07T00:40:12;7.8;68.3
78541;SHT31;67835;51.968;5.646;2024-03-07T00:42:42;7.8;68.5
78541;SHT31;67835;51.968;5.646;2024-03-07T00:45:11;7.8;68.4
78541;SHT31;67835;51.968;5.646;2024-03-07T00:47:39;7.8;68.2
78541;SHT31;67835;51.968;5.646;2024-03-07T00:50:09;7.7;67.9
78541;SHT31;67835;51.968;5.646;2024-03-07T00:52:38;7.7;67.6
78541;SHT31;67835;51.968;5.646;2024-03-07T00:55:08;7.7;67.6
78541;SHT31;67835;51.968;5.646;2024-03-07T00:57:37;7.7;67.5
78541;SHT31;67835;51.968;5.646;2024-03-07T01:00:06;7.7;67.2
78541;SHT31;67835;51.968;5.646;2024-03-07T01:02:40;7.7;67.2
78541;SHT31;67835;51.968;5.646;2024-03-07T01:05:12;7.7;67.2
78541;SHT31;67835;51.968;5.646;2024-03-07T01:07:41;7.6;67.1
78541;SHT31;67835;51.968;5.646;2024-03-07T01:10:13;7.6;67.3
78541;SHT31;67835;51.968;5.646;2024-03-07T01:12:44;7.6;67.2
78541;SHT31;67835;51.968;5.646;2024-03-07T01:15:14;7.6;66.7
78541;SHT31;67835;51.968;5.646;2024-03-07T01:17:43;7.6;66.7
78541;SHT31;67835;51.968;5.646;2024-03-07T01:20:12;7.5;66.5
78541;SHT31;67835;51.968;5.646;2024-03-07T01:22:41;7.5;66.7
78541;SHT31;67835;51.968;5.646;2024-03-07T01:25:10;7.5;66.4
78541;SHT31;67835;51.968;5.646;2024-03-07T01:27:38;7.5;66.1
78541;SHT31;67835;51.968;5.646;2024-03-07T01:30:08;7.4;65.8
78541;SHT31;67835;51.968;5.646;2024-03-07T01:32:37;7.4;65.3
78541;SHT31;67835;51.968;5.646;2024-03-07T01:35:06;7.4;65.3
78541;SHT31;67835;51.968;5.646;2024-03-07T01:37:36;7.4;65.4
78541;SHT31;67835;51.968;5.646;2024-03-07T01:40:05;7.3;65.4
78541;SHT31;67835;51.968;5.646;2024-03-07T01:42:36;7.3;65.4
78541;SHT31;67835;51.968;5.646;2024-03-07T01:45:08;7.3;65.2
78541;SHT31;67835;51.968;5.646;2024-03-07T01:47:37;7.3;65.4
78541;SHT31;67835;51.968;5.646;2024-03-07T01:50:07;7.2;65.7
78541;SHT31;67835;51.968;5.646;2024-03-07T01:52:39;7.2;65.8
78541;SHT31;67835;51.968;5.646;2024-03-07T01:55:09;7.2;66.1
78541;SHT31;67835;51.968;5.646;2024-03-07T01:57:40;7.2;66.2
78541;SHT31;67835;51.968;5.646;2024-03-07T02:00:10;7.2;66.3
78541;SHT31;67835;51.968;5.646;2024-03-07T02:02:39;7.1;66.8
78541;SHT31;67835;51.968;5.646;2024-03-07T02:05:11;7.1;66.8
78541;SHT31;67835;51.968;5.646;2024-03-07T02:07:40;7.1;66.7
78541;SHT31;67835;51.968;5.646;2024-03-07T02:10:11;7.1;66.4
78541;SHT31;67835;51.968;5.646;2024-03-07T02:12:42;7.0;66.5
78541;SHT31;67835;51.968;5.646;2024-03-07T02:15:11;7.0;67.2
78541;SHT31;67835;51.968;5.646;2024-03-07T02:17:41;7.0;67.5
78541;SHT31;67835;51.968;5.646;2024-03-07T02:20:11;7.0;67.7
78541;SHT31;67835;51.968;5.646;2024-03-07T02:22:40;6.9;67.8
78541;SHT31;67835;51.968;5.646;2024-03-07T02:25:09;6.9;68.1
78541;SHT31;67835;51.968;5.646;2024-03-07T02:27:39;6.9;68.1
78541;SHT31;67835;51.968;5.646;2024-03-07T02:30:08;6.9;68.0
78541;SHT31;67835;51.968;5.646;2024-03-07T02:32:38;6.9;68.0
78541;SHT31;67835;51.968;5.646;2024-03-07T02:35:08;6.9;68.0
78541;SHT31;67835;51.968;5.646;2024-03-07T02:37:36;6.8;67.7
78541;SHT31;67835;51.968;5.646;2024-03-07T02:40:06;6.8;67.7
78541;SHT31;67835;51.968;5.646;2024-03-07T02:42:37;6.8;67.3
78541;SHT31;67835;51.968;5.646;2024-03-07T02:45:06;6.8;67.3
78541;SHT31;67835;51.968;5.646;2024-03-07T02:47:38;6.8;66.9
78541;SHT31;67835;51.968;5.646;2024-03-07T02:50:08;6.8;66.8
78541;SHT31;67835;51.968;5.646;2024-03-07T02:52:38;6.8;66.4
78541;SHT31;67835;51.968;5.646;2024-03-07T02:55:08;6.8;66.3
78541;SHT31;67835;51.968;5.646;2024-03-07T02:57:39;6.8;66.2
78541;SHT31;67835;51.968;5.646;2024-03-07T03:00:11;6.8;66.0
78541;SHT31;67835;51.968;5.646;2024-03-07T03:02:53;6.7;66.2
78541;SHT31;67835;51.968;5.646;2024-03-07T03:05:22;6.7;66.8
78541;SHT31;67835;51.968;5.646;2024-03-07T03:07:51;6.7;67.1
78541;SHT31;67835;51.968;5.646;2024-03-07T03:10:21;6.7;67.6
78541;SHT31;67835;51.968;5.646;2024-03-07T03:12:56;6.6;67.6
78541;SHT31;67835;51.968;5.646;2024-03-07T03:15:27;6.6;67.6
78541;SHT31;67835;51.968;5.646;2024-03-07T03:17:56;6.6;67.9
78541;SHT31;67835;51.968;5.646;2024-03-07T03:20:26;6.6;67.7
78541;SHT31;67835;51.968;5.646;2024-03-07T03:23:02;6.6;67.6
78541;SHT31;67835;51.968;5.646;2024-03-07T03:25:32;6.6;67.7
78541;SHT31;67835;51.968;5.646;2024-03-07T03:28:01;6.5;67.8
78541;SHT31;67835;51.968;5.646;2024-03-07T03:30:30;6.5;67.8
78541;SHT31;67835;51.968;5.646;2024-03-07T03:32:59;6.5;67.4
78541;SHT31;67835;51.968;5.646;2024-03-07T03:35:28;6.5;66.9
78541;SHT31;67835;51.968;5.646;2024-03-07T03:37:56;6.5;66.7
78541;SHT31;67835;51.968;5.646;2024-03-07T03:40:25;6.5;66.7
78541;SHT31;67835;51.968;5.646;2024-03-07T03:42:54;6.5;67.3
78541;SHT31;67835;51.968;5.646;2024-03-07T03:45:23;6.4;67.7
78541;SHT31;67835;51.968;5.646;2024-03-07T03:47:52;6.4;68.0
78541;SHT31;67835;51.968;5.646;2024-03-07T03:50:20;6.4;68.2
78541;SHT31;67835;51.968;5.646;2024-03-07T03:52:51;6.4;68.4
78541;SHT31;67835;51.968;5.646;2024-03-07T03:55:19;6.4;68.6
78541;SHT31;67835;51.968;5.646;2024-03-07T03:57:49;6.3;69.1
78541;SHT31;67835;51.968;5.646;2024-03-07T04:00:18;6.3;69.4
78541;SHT31;67835;51.968;5.646;2024-03-07T04:02:49;6.3;69.5
78541;SHT31;67835;51.968;5.646;2024-03-07T04:05:19;6.3;70.0
78541;SHT31;67835;51.968;5.646;2024-03-07T04:07:48;6.3;70.0
78541;SHT31;67835;51.968;5.646;2024-03-07T04:10:17;6.3;70.2
78541;SHT31;67835;51.968;5.646;2024-03-07T04:12:48;6.3;70.6
78541;SHT31;67835;51.968;5.646;2024-03-07T04:15:17;6.3;70.5
78541;SHT31;67835;51.968;5.646;2024-03-07T04:17:47;6.3;70.6
78541;SHT31;67835;51.968;5.646;2024-03-07T04:20:15;6.3;70.7
78541;SHT31;67835;51.968;5.646;2024-03-07T04:22:45;6.3;70.8
78541;SHT31;67835;51.968;5.646;2024-03-07T04:25:15;6.3;70.7
78541;SHT31;67835;51.968;5.646;2024-03-07T04:27:44;6.3;70.8
78541;SHT31;67835;51.968;5.646;2024-03-07T04:30:15;6.3;70.8
78541;SHT31;67835;51.968;5.646;2024-03-07T04:32:44;6.3;70.7
78541;SHT31;67835;51.968;5.646;2024-03-07T04:35:13;6.3;70.8
78541;SHT31;67835;51.968;5.646;2024-03-07T04:37:42;6.3;70.5
78541;SHT31;67835;51.968;5.646;2024-03-07T04:40:12;6.3;70.3
78541;SHT31;67835;51.968;5.646;2024-03-07T04:42:46;6.3;70.2
78541;SHT31;67835;51.968;5.646;2024-03-07T04:45:16;6.3;70.2
78541;SHT31;67835;51.968;5.646;2024-03-07T04:47:46;6.3;70.1
78541;SHT31;67835;51.968;5.646;2024-03-07T04:50:16;6.3;70.2
78541;SHT31;67835;51.968;5.646;2024-03-07T04:52:45;6.3;70.1
78541;SHT31;67835;51.968;5.646;2024-03-07T04:55:14;6.3;70.3
78541;SHT31;67835;51.968;5.646;2024-03-07T04:57:43;6.3;70.5
78541;SHT31;67835;51.968;5.646;2024-03-07T05:00:14;6.3;70.3
78541;SHT31;67835;51.968;5.646;2024-03-07T05:02:47;6.3;70.0
78541;SHT31;67835;51.968;5.646;2024-03-07T05:05:16;6.3;69.7
78541;SHT31;67835;51.968;5.646;2024-03-07T05:07:48;6.3;69.5
78541;SHT31;67835;51.968;5.646;2024-03-07T05:10:19;6.3;69.1
78541;SHT31;67835;51.968;5.646;2024-03-07T05:12:48;6.3;69.1
78541;SHT31;67835;51.968;5.646;2024-03-07T05:15:17;6.3;69.1
78541;SHT31;67835;51.968;5.646;2024-03-07T05:17:45;6.3;69.0
78541;SHT31;67835;51.968;5.646;2024-03-07T05:20:14;6.3;69.1
78541;SHT31;67835;51.968;5.646;2024-03-07T05:22:42;6.3;68.8
78541;SHT31;67835;51.968;5.646;2024-03-07T05:25:16;6.3;68.7
78541;SHT31;67835;51.968;5.646;2024-03-07T05:27:48;6.2;68.7
78541;SHT31;67835;51.968;5.646;2024-03-07T05:30:18;6.2;68.4
78541;SHT31;67835;51.968;5.646;2024-03-07T05:32:49;6.2;68.1
78541;SHT31;67835;51.968;5.646;2024-03-07T05:35:18;6.2;67.6
78541;SHT31;67835;51.968;5.646;2024-03-07T05:37:47;6.2;67.4
78541;SHT31;67835;51.968;5.646;2024-03-07T05:40:18;6.2;67.3
78541;SHT31;67835;51.968;5.646;2024-03-07T05:42:47;6.1;67.2
78541;SHT31;67835;51.968;5.646;2024-03-07T05:45:16;6.1;66.9
78541;SHT31;67835;51.968;5.646;2024-03-07T05:47:47;6.1;67.5
78541;SHT31;67835;51.968;5.646;2024-03-07T05:50:16;6.1;67.9
78541;SHT31;67835;51.968;5.646;2024-03-07T05:52:45;6.1;67.9
78541;SHT31;67835;51.968;5.646;2024-03-07T05:55:14;6.0;68.3
78541;SHT31;67835;51.968;5.646;2024-03-07T05:57:45;6.0;68.4
78541;SHT31;67835;51.968;5.646;2024-03-07T06:00:15;6.0;68.2
78541;SHT31;67835;51.968;5.646;2024-03-07T06:02:49;6.0;68.3
78541;SHT31;67835;51.968;5.646;2024-03-07T06:05:17;6.0;68.3
78541;SHT31;67835;51.968;5.646;2024-03-07T06:07:45;6.0;68.3
78541;SHT31;67835;51.968;5.646;2024-03-07T06:10:15;6.0;68.2
78541;SHT31;67835;51.968;5.646;2024-03-07T06:12:44;5.9;68.4
78541;SHT31;67835;51.968;5.646;2024-03-07T06:15:13;5.9;68.7
78541;SHT31;67835;51.968;5.646;2024-03-07T06:17:44;5.9;68.9
78541;SHT31;67835;51.968;5.646;2024-03-07T06:20:13;5.9;68.8
78541;SHT31;67835;51.968;5.646;2024-03-07T06:22:48;5.9;68.9
78541;SHT31;67835;51.968;5.646;2024-03-07T06:25:17;5.9;69.0
78541;SHT31;67835;51.968;5.646;2024-03-07T06:27:52;5.9;69.3
78541;SHT31;67835;51.968;5.646;2024-03-07T06:30:23;5.9;69.7
78541;SHT31;67835;51.968;5.646;2024-03-07T06:32:52;5.9;69.8
78541;SHT31;67835;51.968;5.646;2024-03-07T06:35:20;5.9;69.8
78541;SHT31;67835;51.968;5.646;2024-03-07T06:37:50;5.9;69.9
78541;SHT31;67835;51.968;5.646;2024-03-07T06:40:18;5.9;70.1
78541;SHT31;67835;51.968;5.646;2024-03-07T06:42:48;5.9;70.0
78541;SHT31;67835;51.968;5.646;2024-03-07T06:45:18;5.9;70.0
78541;SHT31;67835;51.968;5.646;2024-03-07T06:47:47;5.9;70.1
78541;SHT31;67835;51.968;5.646;2024-03-07T06:50:16;5.9;70.4
78541;SHT31;67835;51.968;5.646;2024-03-07T06:52:46;6.0;70.3
78541;SHT31;67835;51.968;5.646;2024-03-07T06:55:15;6.0;70.2
78541;SHT31;67835;51.968;5.646;2024-03-07T06:57:45;6.0;70.2
78541;SHT31;67835;51.968;5.646;2024-03-07T07:00:15;6.0;70.2
78541;SHT31;67835;51.968;5.646;2024-03-07T07:02:47;6.1;70.2
78541;SHT31;67835;51.968;5.646;2024-03-07T07:05:19;6.1;70.1
78541;SHT31;67835;51.968;5.646;2024-03-07T07:07:47;6.1;70.1
78541;SHT31;67835;51.968;5.646;2024-03-07T07:10:19;6.2;70.0
78541;SHT31;67835;51.968;5.646;2024-03-07T07:12:51;6.2;70.0
78541;SHT31;67835;51.968;5.646;2024-03-07T07:15:21;6.2;69.7
78541;SHT31;67835;51.968;5.646;2024-03-07T07:17:50;6.3;69.6
78541;SHT31;67835;51.968;5.646;2024-03-07T07:20:18;6.3;69.6
78541;SHT31;67835;51.968;5.646;2024-03-07T07:22:47;6.3;69.6
78541;SHT31;67835;51.968;5.646;2024-03-07T07:25:16;6.4;69.5
78541;SHT31;67835;51.968;5.646;2024-03-07T07:27:48;6.4;69.1
78541;SHT31;67835;51.968;5.646;2024-03-07T07:30:19;6.5;69.1
78541;SHT31;67835;51.968;5.646;2024-03-07T07:32:50;6.6;69.0
78541;SHT31;67835;51.968;5.646;2024-03-07T07:35:20;6.7;69.3
78541;SHT31;67835;51.968;5.646;2024-03-07T07:37:51;6.9;69.9
78541;SHT31;67835;51.968;5.646;2024-03-07T07:40:23;7.3;69.3
78541;SHT31;67835;51.968;5.646;2024-03-07T07:42:54;7.9;68.2
78541;SHT31;67835;51.968;5.646;2024-03-07T07:45:24;8.4;64.4
78541;SHT31;67835;51.968;5.646;2024-03-07T07:47:53;9.0;64.0
78541;SHT31;67835;51.968;5.646;2024-03-07T07:50:23;9.6;60.3
78541;SHT31;67835;51.968;5.646;2024-03-07T07:52:54;10.1;59.0
78541;SHT31;67835;51.968;5.646;2024-03-07T07:55:24;10.5;57.0
78541;SHT31;67835;51.968;5.646;2024-03-07T07:57:55;10.9;55.8
78541;SHT31;67835;51.968;5.646;2024-03-07T08:00:25;11.4;54.2
78541;SHT31;67835;51.968;5.646;2024-03-07T08:02:56;11.8;53.0
78541;SHT31;67835;51.968;5.646;2024-03-07T08:05:26;12.3;51.8
78541;SHT31;67835;51.968;5.646;2024-03-07T08:07:57;12.8;50.8
78541;SHT31;67835;51.968;5.646;2024-03-07T08:10:27;13.2;48.9
78541;SHT31;67835;51.968;5.646;2024-03-07T08:12:58;13.6;47.4
78541;SHT31;67835;51.968;5.646;2024-03-07T08:15:28;14.0;46.3
78541;SHT31;67835;51.968;5.646;2024-03-07T08:17:59;14.4;46.2
78541;SHT31;67835;51.968;5.646;2024-03-07T08:20:28;14.8;44.5
78541;SHT31;67835;51.968;5.646;2024-03-07T08:22:58;15.1;44.0
78541;SHT31;67835;51.968;5.646;2024-03-07T08:25:29;15.5;43.3
78541;SHT31;67835;51.968;5.646;2024-03-07T08:27:58;15.9;41.7
78541;SHT31;67835;51.968;5.646;2024-03-07T08:30:27;16.2;41.3
78541;SHT31;67835;51.968;5.646;2024-03-07T08:32:57;16.5;40.2
78541;SHT31;67835;51.968;5.646;2024-03-07T08:35:31;16.8;39.4
78541;SHT31;67835;51.968;5.646;2024-03-07T08:37:59;17.0;39.8
78541;SHT31;67835;51.968;5.646;2024-03-07T08:40:30;17.3;38.1
78541;SHT31;67835;51.968;5.646;2024-03-07T08:43:01;17.6;38.3
78541;SHT31;67835;51.968;5.646;2024-03-07T08:45:33;17.9;37.6
78541;SHT31;67835;51.968;5.646;2024-03-07T08:48:03;18.2;37.1
78541;SHT31;67835;51.968;5.646;2024-03-07T08:50:34;18.5;36.0
78541;SHT31;67835;51.968;5.646;2024-03-07T08:53:04;18.8;35.9
78541;SHT31;67835;51.968;5.646;2024-03-07T08:55:33;19.1;35.2
78541;SHT31;67835;51.968;5.646;2024-03-07T08:58:02;19.3;34.7
78541;SHT31;67835;51.968;5.646;2024-03-07T09:00:32;19.5;34.0
78541;SHT31;67835;51.968;5.646;2024-03-07T09:03:02;19.8;34.1
78541;SHT31;67835;51.968;5.646;2024-03-07T09:05:36;20.0;34.3
78541;SHT31;67835;51.968;5.646;2024-03-07T09:08:06;20.3;32.9
78541;SHT31;67835;51.968;5.646;2024-03-07T09:10:34;20.6;33.1
78541;SHT31;67835;51.968;5.646;2024-03-07T09:13:03;20.9;32.9
78541;SHT31;67835;51.968;5.646;2024-03-07T09:15:32;21.2;32.0
78541;SHT31;67835;51.968;5.646;2024-03-07T09:18:02;21.5;29.7
78541;SHT31;67835;51.968;5.646;2024-03-07T09:20:32;21.8;30.3
78541;SHT31;67835;51.968;5.646;2024-03-07T09:23:01;22.0;30.0
78541;SHT31;67835;51.968;5.646;2024-03-07T09:25:29;22.2;30.4
78541;SHT31;67835;51.968;5.646;2024-03-07T09:27:59;22.4;29.3
78541;SHT31;67835;51.968;5.646;2024-03-07T09:30:30;22.7;29.0
78541;SHT31;67835;51.968;5.646;2024-03-07T09:32:58;22.9;28.1
78541;SHT31;67835;51.968;5.646;2024-03-07T09:35:28;23.1;28.0
78541;SHT31;67835;51.968;5.646;2024-03-07T09:38:00;23.3;27.9
78541;SHT31;67835;51.968;5.646;2024-03-07T09:40:30;23.5;26.6
78541;SHT31;67835;51.968;5.646;2024-03-07T09:43:01;23.7;25.6
78541;SHT31;67835;51.968;5.646;2024-03-07T09:45:30;23.7;25.8
78541;SHT31;67835;51.968;5.646;2024-03-07T09:48:00;23.8;25.6
78541;SHT31;67835;51.968;5.646;2024-03-07T09:50:30;23.8;25.8
78541;SHT31;67835;51.968;5.646;2024-03-07T09:53:00;23.8;25.2
78541;SHT31;67835;51.968;5.646;2024-03-07T09:55:31;23.8;25.6
78541;SHT31;67835;51.968;5.646;2024-03-07T09:58:00;23.8;26.2
78541;SHT31;67835;51.968;5.646;2024-03-07T10:00:36;23.9;25.3
78541;SHT31;67835;51.968;5.646;2024-03-07T10:03:08;23.9;25.3
78541;SHT31;67835;51.968;5.646;2024-03-07T10:05:40;23.9;25.7
78541;SHT31;67835;51.968;5.646;2024-03-07T10:08:09;24.0;24.7
78541;SHT31;67835;51.968;5.646;2024-03-07T10:10:40;24.1;24.6
78541;SHT31;67835;51.968;5.646;2024-03-07T10:13:08;24.2;24.6
78541;SHT31;67835;51.968;5.646;2024-03-07T10:15:39;24.3;26.2
78541;SHT31;67835;51.968;5.646;2024-03-07T10:18:10;24.5;25.5
78541;SHT31;67835;51.968;5.646;2024-03-07T10:20:42;24.8;24.7
78541;SHT31;67835;51.968;5.646;2024-03-07T10:23:11;25.2;24.3
78541;SHT31;67835;51.968;5.646;2024-03-07T10:25:40;25.6;23.3
78541;SHT31;67835;51.968;5.646;2024-03-07T10:28:10;25.9;23.4
78541;SHT31;67835;51.968;5.646;2024-03-07T10:30:41;26.0;22.9
78541;SHT31;67835;51.968;5.646;2024-03-07T10:33:12;26.1;22.3
78541;SHT31;67835;51.968;5.646;2024-03-07T10:35:41;26.1;22.3
78541;SHT31;67835;51.968;5.646;2024-03-07T10:38:09;26.1;22.1
78541;SHT31;67835;51.968;5.646;2024-03-07T10:40:38;25.9;22.4
78541;SHT31;67835;51.968;5.646;2024-03-07T10:43:10;25.8;23.3
78541;SHT31;67835;51.968;5.646;2024-03-07T10:45:44;25.7;22.7
78541;SHT31;67835;51.968;5.646;2024-03-07T10:48:17;25.7;23.1
78541;SHT31;67835;51.968;5.646;2024-03-07T10:50:59;25.7;23.6
78541;SHT31;67835;51.968;5.646;2024-03-07T10:53:51;25.7;23.7
78541;SHT31;67835;51.968;5.646;2024-03-07T10:56:33;25.7;24.1
78541;SHT31;67835;51.968;5.646;2024-03-07T10:59:10;25.7;23.5
78541;SHT31;67835;51.968;5.646;2024-03-07T11:01:55;25.7;24.2
78541;SHT31;67835;51.968;5.646;2024-03-07T11:04:24;25.8;23.4
78541;SHT31;67835;51.968;5.646;2024-03-07T11:06:53;25.8;23.3
78541;SHT31;67835;51.968;5.646;2024-03-07T11:09:23;25.8;23.0
78541;SHT31;67835;51.968;5.646;2024-03-07T11:11:56;25.6;23.5
78541;SHT31;67835;51.968;5.646;2024-03-07T11:14:28;25.6;23.3
78541;SHT31;67835;51.968;5.646;2024-03-07T11:16:57;25.5;23.7
78541;SHT31;67835;51.968;5.646;2024-03-07T11:19:28;25.6;23.5
78541;SHT31;67835;51.968;5.646;2024-03-07T11:21:58;25.6;23.5
78541;SHT31;67835;51.968;5.646;2024-03-07T11:24:32;25.6;23.8
78541;SHT31;67835;51.968;5.646;2024-03-07T11:27:04;25.6;23.3
78541;SHT31;67835;51.968;5.646;2024-03-07T11:29:43;25.6;23.7
78541;SHT31;67835;51.968;5.646;2024-03-07T11:32:14;25.7;23.3
78541;SHT31;67835;51.968;5.646;2024-03-07T11:34:44;25.7;24.1
78541;SHT31;67835;51.968;5.646;2024-03-07T11:37:19;25.8;23.6
78541;SHT31;67835;51.968;5.646;2024-03-07T11:39:51;25.9;23.0
78541;SHT31;67835;51.968;5.646;2024-03-07T11:42:25;25.9;22.8
78541;SHT31;67835;51.968;5.646;2024-03-07T11:44:56;25.9;22.6
78541;SHT31;67835;51.968;5.646;2024-03-07T11:47:26;25.9;23.1
78541;SHT31;67835;51.968;5.646;2024-03-07T11:49:56;25.9;23.2
78541;SHT31;67835;51.968;5.646;2024-03-07T11:52:24;25.9;22.8
78541;SHT31;67835;51.968;5.646;2024-03-07T11:54:54;25.9;21.8
78541;SHT31;67835;51.968;5.646;2024-03-07T11:57:27;25.9;22.1
78541;SHT31;67835;51.968;5.646;2024-03-07T11:59:59;25.9;22.7
78541;SHT31;67835;51.968;5.646;2024-03-07T12:02:37;25.9;22.1
78541;SHT31;67835;51.968;5.646;2024-03-07T12:05:06;26.0;21.9
78541;SHT31;67835;51.968;5.646;2024-03-07T12:07:36;26.0;22.5
78541;SHT31;67835;51.968;5.646;2024-03-07T12:10:05;26.0;22.5
78541;SHT31;67835;51.968;5.646;2024-03-07T12:12:34;26.0;23.3
78541;SHT31;67835;51.968;5.646;2024-03-07T12:15:06;26.0;22.1
78541;SHT31;67835;51.968;5.646;2024-03-07T12:17:40;26.1;22.6
78541;SHT31;67835;51.968;5.646;2024-03-07T12:20:10;26.1;23.2
78541;SHT31;67835;51.968;5.646;2024-03-07T12:22:57;26.1;23.8
78541;SHT31;67835;51.968;5.646;2024-03-07T12:25:28;26.2;23.2
78541;SHT31;67835;51.968;5.646;2024-03-07T12:28:08;26.4;22.6
78541;SHT31;67835;51.968;5.646;2024-03-07T12:30:50;26.5;22.7
78541;SHT31;67835;51.968;5.646;2024-03-07T12:33:20;26.5;22.4
78541;SHT31;67835;51.968;5.646;2024-03-07T12:35:53;26.5;22.5
78541;SHT31;67835;51.968;5.646;2024-03-07T12:38:29;26.5;22.4
78541;SHT31;67835;51.968;5.646;2024-03-07T12:41:06;26.4;23.5
78541;SHT31;67835;51.968;5.646;2024-03-07T12:43:40;26.3;23.0
78541;SHT31;67835;51.968;5.646;2024-03-07T12:46:12;26.2;22.8
78541;SHT31;67835;51.968;5.646;2024-03-07T12:48:41;26.1;22.8
78541;SHT31;67835;51.968;5.646;2024-03-07T12:51:11;25.9;22.7
78541;SHT31;67835;51.968;5.646;2024-03-07T12:53:43;25.6;23.4
78541;SHT31;67835;51.968;5.646;2024-03-07T12:56:12;25.3;23.8
78541;SHT31;67835;51.968;5.646;2024-03-07T12:58:43;25.1;24.0
78541;SHT31;67835;51.968;5.646;2024-03-07T13:01:12;25.0;24.0
78541;SHT31;67835;51.968;5.646;2024-03-07T13:03:41;24.8;25.2
78541;SHT31;67835;51.968;5.646;2024-03-07T13:06:13;24.6;25.4
78541;SHT31;67835;51.968;5.646;2024-03-07T13:08:42;24.4;25.5
78541;SHT31;67835;51.968;5.646;2024-03-07T13:11:12;24.2;25.3
78541;SHT31;67835;51.968;5.646;2024-03-07T13:13:42;23.9;26.5
78541;SHT31;67835;51.968;5.646;2024-03-07T13:16:10;23.6;27.2
78541;SHT31;67835;51.968;5.646;2024-03-07T13:18:40;23.4;27.4
78541;SHT31;67835;51.968;5.646;2024-03-07T13:21:10;23.3;27.6
78541;SHT31;67835;51.968;5.646;2024-03-07T13:23:43;23.2;27.9
78541;SHT31;67835;51.968;5.646;2024-03-07T13:26:13;23.1;28.2
78541;SHT31;67835;51.968;5.646;2024-03-07T13:28:46;23.1;28.5
78541;SHT31;67835;51.968;5.646;2024-03-07T13:31:15;23.0;28.4
78541;SHT31;67835;51.968;5.646;2024-03-07T13:33:46;23.0;28.3
78541;SHT31;67835;51.968;5.646;2024-03-07T13:36:18;22.9;28.5
78541;SHT31;67835;51.968;5.646;2024-03-07T13:38:49;22.8;28.4
78541;SHT31;67835;51.968;5.646;2024-03-07T13:41:20;22.7;28.8
78541;SHT31;67835;51.968;5.646;2024-03-07T13:43:49;22.5;29.2
78541;SHT31;67835;51.968;5.646;2024-03-07T13:46:19;22.3;29.9
78541;SHT31;67835;51.968;5.646;2024-03-07T13:48:48;22.2;29.5
78541;SHT31;67835;51.968;5.646;2024-03-07T13:51:18;21.9;30.0
78541;SHT31;67835;51.968;5.646;2024-03-07T13:53:47;21.5;30.8
78541;SHT31;67835;51.968;5.646;2024-03-07T13:56:45;21.3;31.0
78541;SHT31;67835;51.968;5.646;2024-03-07T14:00:49;21.1;30.7
78541;SHT31;67835;51.968;5.646;2024-03-07T14:03:48;20.5;31.7
78541;SHT31;67835;51.968;5.646;2024-03-07T14:06:27;20.1;33.0
78541;SHT31;67835;51.968;5.646;2024-03-07T14:09:23;20.0;33.2
78541;SHT31;67835;51.968;5.646;2024-03-07T14:12:44;19.8;34.2
78541;SHT31;67835;51.968;5.646;2024-03-07T14:17:43;19.7;33.8
78541;SHT31;67835;51.968;5.646;2024-03-07T14:27:35;18.5;35.6
78541;SHT31;67835;51.968;5.646;2024-03-07T14:30:23;18.0;37.1
78541;SHT31;67835;51.968;5.646;2024-03-07T14:32:55;17.7;37.4
78541;SHT31;67835;51.968;5.646;2024-03-07T14:35:35;17.5;37.8
78541;SHT31;67835;51.968;5.646;2024-03-07T14:38:22;17.3;38.2
78541;SHT31;67835;51.968;5.646;2024-03-07T14:40:43;17.1;38.4
78541;SHT31;67835;51.968;5.646;2024-03-07T14:43:19;16.9;39.1
78541;SHT31;67835;51.968;5.646;2024-03-07T14:45:49;16.7;39.4
78541;SHT31;67835;51.968;5.646;2024-03-07T14:48:21;16.6;39.6
78541;SHT31;67835;51.968;5.646;2024-03-07T14:50:50;16.4;40.3
78541;SHT31;67835;51.968;5.646;2024-03-07T14:53:20;16.3;40.4
78541;SHT31;67835;51.968;5.646;2024-03-07T14:55:48;16.2;41.5
78541;SHT31;67835;51.968;5.646;2024-03-07T14:58:18;16.2;41.9
78541;SHT31;67835;51.968;5.646;2024-03-07T15:00:47;16.2;41.7
78541;SHT31;67835;51.968;5.646;2024-03-07T15:03:20;16.3;40.3
78541;SHT31;67835;51.968;5.646;2024-03-07T15:05:49;16.3;40.1
78541;SHT31;67835;51.968;5.646;2024-03-07T15:08:18;16.3;40.0
78541;SHT31;67835;51.968;5.646;2024-03-07T15:10:53;16.3;40.0
78541;SHT31;67835;51.968;5.646;2024-03-07T15:13:23;16.3;40.1
78541;SHT31;67835;51.968;5.646;2024-03-07T15:15:51;16.3;39.5
78541;SHT31;67835;51.968;5.646;2024-03-07T15:18:21;16.2;39.7
78541;SHT31;67835;51.968;5.646;2024-03-07T15:20:49;16.1;39.8
78541;SHT31;67835;51.968;5.646;2024-03-07T15:23:19;16.1;39.9
78541;SHT31;67835;51.968;5.646;2024-03-07T15:25:50;16.0;40.5
78541;SHT31;67835;51.968;5.646;2024-03-07T15:28:21;16.0;41.0
78541;SHT31;67835;51.968;5.646;2024-03-07T15:30:52;16.0;40.6
78541;SHT31;67835;51.968;5.646;2024-03-07T15:33:21;15.9;40.5
78541;SHT31;67835;51.968;5.646;2024-03-07T15:35:49;15.9;40.3
78541;SHT31;67835;51.968;5.646;2024-03-07T15:38:19;15.9;40.5
78541;SHT31;67835;51.968;5.646;2024-03-07T15:40:47;15.8;41.2
78541;SHT31;67835;51.968;5.646;2024-03-07T15:43:20;15.7;41.6
78541;SHT31;67835;51.968;5.646;2024-03-07T15:45:51;15.6;41.3
78541;SHT31;67835;51.968;5.646;2024-03-07T15:48:20;15.5;41.7
78541;SHT31;67835;51.968;5.646;2024-03-07T15:50:51;15.5;42.0
78541;SHT31;67835;51.968;5.646;2024-03-07T15:53:24;15.5;42.5
78541;SHT31;67835;51.968;5.646;2024-03-07T15:55:54;15.4;41.9
78541;SHT31;67835;51.968;5.646;2024-03-07T15:58:24;15.4;41.5
78541;SHT31;67835;51.968;5.646;2024-03-07T16:00:54;15.4;41.5
78541;SHT31;67835;51.968;5.646;2024-03-07T16:03:23;15.4;41.8
78541;SHT31;67835;51.968;5.646;2024-03-07T16:05:52;15.3;41.9
78541;SHT31;67835;51.968;5.646;2024-03-07T16:08:21;15.2;42.4
78541;SHT31;67835;51.968;5.646;2024-03-07T16:10:51;15.1;42.8
78541;SHT31;67835;51.968;5.646;2024-03-07T16:13:20;15.1;42.6
78541;SHT31;67835;51.968;5.646;2024-03-07T16:15:50;15.0;43.0
78541;SHT31;67835;51.968;5.646;2024-03-07T16:18:19;14.9;43.4
78541;SHT31;67835;51.968;5.646;2024-03-07T16:20:50;14.9;43.7
78541;SHT31;67835;51.968;5.646;2024-03-07T16:23:18;14.9;44.0
78541;SHT31;67835;51.968;5.646;2024-03-07T16:25:47;14.8;43.7
78541;SHT31;67835;51.968;5.646;2024-03-07T16:28:16;14.8;44.0
78541;SHT31;67835;51.968;5.646;2024-03-07T16:30:50;14.8;43.9
78541;SHT31;67835;51.968;5.646;2024-03-07T16:33:18;14.7;43.8
78541;SHT31;67835;51.968;5.646;2024-03-07T16:35:49;14.7;43.6
78541;SHT31;67835;51.968;5.646;2024-03-07T16:38:17;14.6;43.7
78541;SHT31;67835;51.968;5.646;2024-03-07T16:40:48;14.6;44.2
78541;SHT31;67835;51.968;5.646;2024-03-07T16:43:20;14.6;44.3